Time;durP1;ratioP1;P1;durP2;ratioP2;P2;SDS_P1;SDS_P2;PMS_P1;PMS_P2;Temp;Humidity;BMP_temperature;BMP_pressure;BME280_temperature;BME280_humidity;BME280_pressure;Samples;Min_cycle;Max_cycle;Signal;HPM_P1;HPM_P2
2024/04/19 00:01:18;;;;;;;14.77;13.87;;;6.00;1.00;;;;;;5436065;26;20386;-45
2024/04/19 00:03:44;;;;;;;14.37;13.37;;;5.90;1.00;;;;;;5435245;26;20237;-52
2024/04/19 00:06:10;;;;;;;14.80;13.90;;;5.90;1.00;;;;;;5434745;26;21032;-52
2024/04/19 00:08:38;;;;;;;15.00;13.80;;;5.80;1.00;;;;;;5435378;26;20233;-49
2024/04/19 00:11:04;;;;;;;14.80;13.90;;;5.80;1.00;;;;;;5435543;26;20337;-46
2024/04/19 00:13:30;;;;;;;14.77;13.97;;;5.70;1.00;;;;;;5435800;26;20641;-50
2024/04/19 00:15:58;;;;;;;14.60;13.70;;;5.70;1.00;;;;;;5435492;26;20230;-54
2024/04/19 00:18:27;;;;;;;14.70;13.80;;;5.70;1.00;;;;;;5434124;26;20301;-50
2024/04/19 00:20:55;;;;;;;14.38;13.48;;;5.70;1.00;;;;;;5435902;26;20578;-50
2024/04/19 00:23:21;;;;;;;15.23;14.23;;;5.60;1.00;;;;;;5435833;26;20245;-52
2024/04/19 00:25:47;;;;;;;14.30;13.40;;;5.60;1.00;;;;;;5436018;26;20972;-54
2024/04/19 00:28:13;;;;;;;14.57;13.67;;;5.60;1.00;;;;;;5435017;26;20337;-49
2024/04/19 00:30:40;;;;;;;15.10;14.10;;;5.60;1.00;;;;;;5435681;26;20280;-53
2024/04/19 00:33:05;;;;;;;15.40;14.48;;;5.60;1.00;;;;;;5435142;26;20237;-52
2024/04/19 00:35:31;;;;;;;14.50;13.60;;;5.70;1.00;;;;;;5433015;26;20288;-48
2024/04/19 00:37:57;;;;;;;15.43;14.40;;;5.70;1.00;;;;;;5434685;26;20226;-52
2024/04/19 00:40:22;;;;;;;15.20;14.10;;;5.70;1.00;;;;;;5435318;26;20222;-50
2024/04/19 00:42:52;;;;;;;14.03;13.13;;;5.60;1.00;;;;;;5435094;26;20266;-50
2024/04/19 00:45:38;;;;;;;14.52;13.50;;;5.60;1.00;;;;;;5434943;26;20234;-51
2024/04/19 00:48:30;;;;;;;14.20;13.30;;;5.60;1.00;;;;;;5434828;26;20583;-53
2024/04/19 00:51:01;;;;;;;14.20;13.30;;;5.60;1.00;;;;;;5430054;26;20451;-48
2024/04/19 00:53:30;;;;;;;14.43;13.52;;;5.50;1.00;;;;;;5436457;26;20273;-54
2024/04/19 00:55:58;;;;;;;14.60;13.70;;;5.50;1.00;;;;;;5436909;26;20782;-50
2024/04/19 00:58:28;;;;;;;15.00;13.90;;;5.50;1.00;;;;;;5436628;26;20230;-54
2024/04/19 01:00:55;;;;;;;14.82;13.75;;;5.50;1.00;;;;;;5435580;26;20229;-52
2024/04/19 01:03:21;;;;;;;14.50;13.50;;;5.40;1.00;;;;;;5436713;26;20289;-49
2024/04/19 01:05:46;;;;;;;15.43;14.33;;;5.40;1.00;;;;;;5433719;26;20229;-53
2024/04/19 01:08:12;;;;;;;14.97;14.00;;;5.40;1.00;;;;;;5436294;26;20728;-53
2024/04/19 01:10:39;;;;;;;15.40;14.30;;;5.40;1.00;;;;;;5436756;26;20277;-53
2024/04/19 01:13:05;;;;;;;15.40;14.27;;;5.40;1.00;;;;;;5436763;26;20226;-52
2024/04/19 01:15:34;;;;;;;14.40;13.50;;;5.40;1.00;;;;;;5435634;26;20280;-50
2024/04/19 01:18:00;;;;;;;15.10;13.98;;;5.30;1.00;;;;;;5435737;26;20225;-50
2024/04/19 01:20:26;;;;;;;14.60;13.60;;;5.40;1.00;;;;;;5436050;26;20281;-54
2024/04/19 01:22:51;;;;;;;14.53;13.60;;;5.40;1.00;;;;;;5436733;26;20230;-53
2024/04/19 01:25:32;;;;;;;14.53;13.33;;;5.50;1.00;;;;;;5436369;26;20575;-49
2024/04/19 01:27:58;;;;;;;15.45;14.10;;;5.60;1.00;;;;;;5436429;26;20234;-52
2024/04/19 01:30:24;;;;;;;15.10;14.10;;;5.60;1.00;;;;;;5434452;26;21681;-49
2024/04/19 01:32:49;;;;;;;14.77;13.87;;;5.60;1.00;;;;;;5436264;26;20716;-48
2024/04/19 01:35:15;;;;;;;13.83;12.80;;;5.70;1.00;;;;;;5435757;26;20238;-54
2024/04/19 01:37:41;;;;;;;14.07;13.10;;;5.80;1.00;;;;;;5436213;26;20222;-51
2024/04/19 01:40:07;;;;;;;14.43;13.50;;;5.80;1.00;;;;;;5436108;26;20218;-48
2024/04/19 01:42:32;;;;;;;14.20;13.40;;;5.90;1.00;;;;;;5435719;26;20273;-51
2024/04/19 01:44:58;;;;;;;14.40;13.50;;;5.90;1.00;;;;;;5434961;26;20448;-51
2024/04/19 01:47:23;;;;;;;14.20;13.20;;;5.90;1.00;;;;;;5436147;26;20280;-53
2024/04/19 01:49:49;;;;;;;13.90;13.00;;;5.90;1.00;;;;;;5435379;26;20505;-45
2024/04/19 01:52:15;;;;;;;14.50;13.60;;;5.90;1.00;;;;;;5434931;26;20222;-39
2024/04/19 01:54:40;;;;;;;14.60;13.60;;;5.90;1.00;;;;;;5432998;26;20287;-42
2024/04/19 01:57:06;;;;;;;14.17;13.17;;;5.90;1.00;;;;;;5434174;26;20222;-41
2024/04/19 01:59:31;;;;;;;14.00;13.10;;;6.00;1.00;;;;;;5431760;26;20574;-41
2024/04/19 02:01:57;;;;;;;14.17;13.27;;;6.00;1.00;;;;;;5434288;26;20238;-48
2024/04/19 02:04:23;;;;;;;14.47;13.47;;;6.00;1.00;;;;;;5433075;26;20230;-41
2024/04/19 02:06:48;;;;;;;14.90;13.90;;;6.00;1.00;;;;;;5433904;26;20277;-43
2024/04/19 02:09:14;;;;;;;13.90;13.00;;;6.00;1.00;;;;;;5433866;26;20230;-43
2024/04/19 02:11:39;;;;;;;14.17;13.27;;;6.00;99.90;;;;;;5435494;26;20235;-41
2024/04/19 02:14:05;;;;;;;14.40;13.33;;;6.00;1.00;;;;;;5437452;26;20277;-39
2024/04/19 02:16:31;;;;;;;13.90;13.00;;;6.10;1.00;;;;;;5404811;26;20265;-39
2024/04/19 02:18:56;;;;;;;14.40;13.50;;;6.00;1.00;;;;;;5436865;26;20754;-44
2024/04/19 02:21:27;;;;;;;14.50;13.60;;;6.00;1.00;;;;;;5437365;26;20226;-45
2024/04/19 02:23:56;;;;;;;14.27;13.33;;;6.00;1.00;;;;;;5437414;26;20243;-51
2024/04/19 02:26:21;;;;;;;14.02;13.10;;;6.00;1.00;;;;;;5436730;26;20459;-52
2024/04/19 02:31:31;;;;;;;13.40;12.55;;;5.90;1.00;;;;;;5437198;26;20260;-45
2024/04/19 02:33:57;;;;;;;12.70;11.80;;;5.80;1.00;;;;;;5435458;26;20298;-53
2024/04/19 02:36:23;;;;;;;13.07;12.30;;;5.80;1.00;;;;;;5437382;26;21538;-41
2024/04/19 02:38:49;;;;;;;13.60;12.50;;;5.80;1.00;;;;;;5436892;26;20222;-44
2024/04/19 02:41:15;;;;;;;13.10;12.30;;;5.90;99.90;;;;;;5436779;26;20225;-40
2024/04/19 02:43:45;;;;;;;13.70;12.70;;;5.90;99.90;;;;;;5437158;26;20515;-49
2024/04/19 02:46:11;;;;;;;13.10;12.30;;;5.90;99.90;;;;;;5437299;26;20451;-44
2024/04/19 02:48:36;;;;;;;13.13;12.23;;;5.90;1.00;;;;;;5436939;26;20279;-42
2024/04/19 02:51:02;;;;;;;13.00;12.20;;;5.90;72.90;;;;;;5436498;26;20746;-41
2024/04/19 02:53:31;;;;;;;12.70;11.90;;;5.90;78.00;;;;;;5435954;26;20327;-40
2024/04/19 02:55:57;;;;;;;12.50;11.70;;;6.00;58.70;;;;;;5436606;26;20260;-41
2024/04/19 02:58:23;;;;;;;13.30;12.50;;;6.00;99.90;;;;;;5434999;26;20288;-42
2024/04/19 03:00:48;;;;;;;13.87;12.87;;;6.00;99.90;;;;;;5436810;26;20471;-53
2024/04/19 03:03:15;;;;;;;13.43;12.53;;;6.00;99.90;;;;;;5404453;26;20238;-55
2024/04/19 03:05:40;;;;;;;12.38;11.68;;;6.00;99.90;;;;;;5436652;26;20225;-54
2024/04/19 03:08:06;;;;;;;12.97;12.10;;;6.00;1.00;;;;;;5436762;26;20346;-54
2024/04/19 03:10:37;;;;;;;13.93;12.93;;;6.00;99.90;;;;;;5436567;26;20226;-54
2024/04/19 03:13:03;;;;;;;12.67;11.90;;;6.10;99.90;;;;;;5435780;26;20785;-53
2024/04/19 03:15:28;;;;;;;13.87;13.00;;;6.10;99.90;;;;;;5436723;26;20451;-52
2024/04/19 03:17:54;;;;;;;13.20;12.40;;;6.00;99.90;;;;;;5436538;26;20218;-55
2024/04/19 03:20:19;;;;;;;12.70;11.90;;;6.10;99.90;;;;;;5436048;26;20338;-55
2024/04/19 03:22:45;;;;;;;14.40;13.30;;;6.00;99.90;;;;;;5434560;26;20230;-54
2024/04/19 03:25:10;;;;;;;15.57;14.30;;;6.10;94.10;;;;;;5436411;26;20222;-51
2024/04/19 03:27:36;;;;;;;13.13;12.13;;;6.10;99.90;;;;;;5403526;26;20233;-55
2024/04/19 03:30:02;;;;;;;44.37;37.93;;;6.20;1.00;;;;;;5434922;26;20278;-53
2024/04/19 03:32:27;;;;;;;14.50;13.60;;;6.20;1.00;;;;;;5436363;26;20346;-52
2024/04/19 03:34:53;;;;;;;12.47;11.57;;;6.20;99.90;;;;;;5436201;26;21020;-54
2024/04/19 03:37:19;;;;;;;12.83;12.03;;;6.20;1.00;;;;;;5404564;26;20257;-55
2024/04/19 03:39:44;;;;;;;12.40;11.47;;;6.20;99.90;;;;;;5435881;26;20230;-52
2024/04/19 03:42:12;;;;;;;12.37;11.47;;;6.20;99.90;;;;;;5436223;26;20359;-52
2024/04/19 03:47:29;;;;;;;11.63;10.93;;;6.30;99.90;;;;;;5380647;26;20464;-40
2024/04/19 03:49:55;;;;;;;11.90;11.20;;;6.30;1.00;;;;;;5436382;26;20885;-44
2024/04/19 03:52:21;;;;;;;12.00;11.20;;;6.40;99.90;;;;;;5434848;26;20286;-41
2024/04/19 03:54:46;;;;;;;11.70;11.00;;;6.30;99.90;;;;;;5435034;26;20261;-39
2024/04/19 03:57:12;;;;;;;12.13;11.43;;;6.40;1.00;;;;;;5433558;26;20921;-42
2024/04/19 03:59:39;;;;;;;11.50;10.70;;;6.40;1.00;;;;;;5435584;26;20308;-43
2024/04/19 04:02:04;;;;;;;12.60;11.80;;;6.40;99.90;;;;;;5434601;26;20720;-43
2024/04/19 04:04:30;;;;;;;12.57;11.77;;;6.40;1.00;;;;;;5434700;26;20463;-40
2024/04/19 04:06:55;;;;;;;12.17;11.47;;;6.40;99.90;;;;;;5434345;26;20358;-52
2024/04/19 04:09:21;;;;;;;12.20;11.40;;;6.40;99.90;;;;;;5433882;26;20226;-51
2024/04/19 04:11:46;;;;;;;11.20;10.50;;;6.40;99.90;;;;;;5434098;26;20233;-54
2024/04/19 04:14:12;;;;;;;11.03;10.43;;;6.40;99.90;;;;;;5434474;26;20924;-52
2024/04/19 04:16:38;;;;;;;12.37;11.67;;;6.50;99.90;;;;;;5403634;26;20607;-55
2024/04/19 04:19:04;;;;;;;12.00;11.30;;;6.40;99.90;;;;;;5435891;26;20341;-49
2024/04/19 04:21:29;;;;;;;11.97;11.07;;;6.50;1.00;;;;;;5435620;26;20230;-50
2024/04/19 04:23:55;;;;;;;12.37;11.60;;;6.60;1.00;;;;;;5435906;26;21041;-54
2024/04/19 04:26:21;;;;;;;12.83;11.63;;;6.60;1.00;;;;;;5434697;26;20234;-53
2024/04/19 04:28:48;;;;;;;12.60;11.80;;;6.70;1.00;;;;;;5435798;26;20238;-52
2024/04/19 04:31:13;;;;;;;12.40;11.73;;;6.60;1.00;;;;;;5435846;26;20261;-47
2024/04/19 04:33:39;;;;;;;12.10;11.30;;;6.80;1.00;;;;;;5435521;26;20797;-52
2024/04/19 04:36:05;;;;;;;11.73;11.13;;;6.80;1.00;;;;;;5435582;26;20225;-54
2024/04/19 04:38:30;;;;;;;11.67;11.00;;;6.80;99.90;;;;;;5435645;26;20286;-49
2024/04/19 04:40:56;;;;;;;11.47;10.57;;;6.70;1.00;;;;;;5435400;26;20757;-46
2024/04/19 04:43:21;;;;;;;11.23;10.63;;;6.90;99.90;;;;;;5435366;26;20308;-42
2024/04/19 04:45:47;;;;;;;11.80;11.10;;;6.80;99.90;;;;;;5435282;26;20294;-41
2024/04/19 04:48:16;;;;;;;12.20;11.30;;;6.80;99.90;;;;;;5435118;26;20286;-39
2024/04/19 04:50:42;;;;;;;11.60;10.80;;;6.90;99.90;;;;;;5434983;26;20977;-40
2024/04/19 04:53:08;;;;;;;12.37;11.50;;;6.90;99.90;;;;;;5432497;26;20468;-43
2024/04/19 04:55:33;;;;;;;12.07;11.07;;;6.90;99.90;;;;;;5433911;26;20273;-42
2024/04/19 04:58:00;;;;;;;12.93;11.93;;;6.90;99.90;;;;;;5434308;26;20283;-39
2024/04/19 05:00:29;;;;;;;12.20;11.40;;;6.90;99.90;;;;;;5433692;26;20455;-40
2024/04/19 05:02:58;;;;;;;12.50;11.80;;;6.90;99.90;;;;;;5434415;26;20859;-39
2024/04/19 05:05:24;;;;;;;12.10;11.40;;;7.00;99.90;;;;;;5434407;26;21451;-43
2024/04/19 05:07:50;;;;;;;12.00;11.30;;;7.10;99.90;;;;;;5433756;26;20546;-40
2024/04/19 05:10:16;;;;;;;12.30;11.50;;;7.10;99.90;;;;;;5433753;26;20530;-41
2024/04/19 05:12:42;;;;;;;12.83;11.87;;;7.10;1.00;;;;;;5434878;26;20459;-41
2024/04/19 05:15:07;;;;;;;12.77;11.90;;;7.20;1.00;;;;;;5434981;26;20508;-48
2024/04/19 05:17:35;;;;;;;10.90;10.13;;;7.30;23.90;;;;;;5402486;26;20267;-40
2024/04/19 05:20:01;;;;;;;11.30;10.60;;;7.40;1.00;;;;;;5434895;26;20230;-43
2024/04/19 05:22:27;;;;;;;12.23;11.53;;;7.40;1.00;;;;;;5402930;26;20525;-41
2024/04/19 05:24:52;;;;;;;12.30;11.60;;;7.50;1.00;;;;;;5433846;26;20463;-41
2024/04/19 05:27:18;;;;;;;12.90;12.00;;;7.50;1.00;;;;;;5434894;26;20304;-41
2024/04/19 05:29:43;;;;;;;12.47;11.67;;;7.50;1.00;;;;;;5434682;26;20297;-40
2024/04/19 05:32:09;;;;;;;12.27;11.53;;;7.60;1.00;;;;;;5434042;26;20276;-42
2024/04/19 05:34:35;;;;;;;12.07;11.40;;;7.60;1.00;;;;;;5434047;26;20233;-39
2024/04/19 05:37:00;;;;;;;12.90;12.00;;;7.70;1.00;;;;;;5434210;26;21788;-39
2024/04/19 05:39:26;;;;;;;12.50;11.77;;;7.70;1.00;;;;;;5434469;26;20230;-40
2024/04/19 05:41:51;;;;;;;12.53;11.73;;;7.80;1.00;;;;;;5434418;26;20234;-41
2024/04/19 05:44:19;;;;;;;13.20;12.40;;;7.90;1.00;;;;;;5434076;26;20238;-45
2024/04/19 05:46:45;;;;;;;13.70;12.70;;;8.10;1.00;;;;;;5435954;26;20303;-40
2024/04/19 05:49:11;;;;;;;13.70;12.90;;;8.20;1.00;;;;;;5437982;26;22060;-41
2024/04/19 05:51:36;;;;;;;12.97;12.13;;;8.20;1.00;;;;;;5437930;26;20455;-39
2024/04/19 05:54:02;;;;;;;13.20;12.40;;;8.30;1.00;;;;;;5435696;26;20788;-40
2024/04/19 05:56:28;;;;;;;13.20;12.50;;;8.30;1.00;;;;;;5405306;26;20645;-41
2024/04/19 05:58:57;;;;;;;12.60;11.73;;;8.40;1.00;;;;;;5437044;26;20342;-42
2024/04/19 06:01:23;;;;;;;13.87;12.97;;;8.50;1.00;;;;;;5436827;26;20458;-46
2024/04/19 06:03:48;;;;;;;13.37;12.57;;;8.50;1.00;;;;;;5437657;26;20525;-43
2024/04/19 06:06:14;;;;;;;13.03;12.23;;;8.60;1.00;;;;;;5435730;26;20451;-41
2024/04/19 06:08:39;;;;;;;13.17;12.37;;;8.70;1.00;;;;;;5436861;26;20226;-41
2024/04/19 06:11:05;;;;;;;12.00;11.30;;;8.70;1.00;;;;;;5436636;26;20230;-39
2024/04/19 06:13:31;;;;;;;14.07;13.17;;;8.80;1.00;;;;;;5436946;26;20230;-42
2024/04/19 06:15:56;;;;;;;13.10;12.20;;;8.70;1.00;;;;;;5436814;26;20245;-40
2024/04/19 06:18:22;;;;;;;14.20;13.30;;;8.80;1.00;;;;;;5436865;26;20686;-40
2024/04/19 06:20:48;;;;;;;13.93;13.03;;;9.00;1.00;;;;;;5437054;26;20317;-39
2024/04/19 06:23:14;;;;;;;13.97;13.03;;;8.80;1.00;;;;;;5435611;26;20854;-39
2024/04/19 06:25:40;;;;;;;14.27;13.27;;;8.80;1.00;;;;;;5436891;26;20451;-41
2024/04/19 06:28:06;;;;;;;13.97;13.03;;;8.90;1.00;;;;;;5436882;26;20682;-48
2024/04/19 06:30:31;;;;;;;14.43;13.27;;;8.90;1.00;;;;;;5436447;26;20276;-49
2024/04/19 06:32:57;;;;;;;14.97;13.90;;;9.00;1.00;;;;;;5436619;26;20572;-48
2024/04/19 06:35:23;;;;;;;16.10;14.97;;;8.90;1.00;;;;;;5436448;26;20230;-53
2024/04/19 06:37:48;;;;;;;15.63;14.33;;;8.80;1.00;;;;;;5436447;26;20226;-49
2024/04/19 06:40:14;;;;;;;15.27;14.17;;;8.90;1.00;;;;;;5436592;26;20277;-52
2024/04/19 06:42:40;;;;;;;15.67;14.47;;;8.90;1.00;;;;;;5435258;26;20280;-48
2024/04/19 06:45:06;;;;;;;15.20;14.10;;;8.90;1.00;;;;;;5435264;26;20273;-39
2024/04/19 06:47:34;;;;;;;14.90;13.60;;;8.90;1.00;;;;;;5435759;26;20245;-41
2024/04/19 06:50:00;;;;;;;14.97;13.77;;;9.00;1.00;;;;;;5434489;26;20460;-42
2024/04/19 06:52:26;;;;;;;16.27;15.07;;;9.00;1.00;;;;;;5437890;26;20992;-50
2024/04/19 06:54:52;;;;;;;16.10;14.80;;;9.10;1.00;;;;;;5437918;26;20222;-51
2024/04/19 06:57:18;;;;;;;16.70;15.47;;;9.20;1.00;;;;;;5437174;26;20710;-49
2024/04/19 06:59:44;;;;;;;15.00;13.90;;;9.30;1.00;;;;;;5437222;26;20451;-48
2024/04/19 07:02:10;;;;;;;16.70;15.60;;;9.30;1.00;;;;;;5437366;26;20500;-49
2024/04/19 07:04:35;;;;;;;15.97;14.90;;;9.40;1.00;;;;;;5438131;26;20221;-48
2024/04/19 07:07:01;;;;;;;15.93;14.83;;;9.50;1.00;;;;;;5437900;26;20530;-50
2024/04/19 07:09:27;;;;;;;15.80;14.70;;;9.50;1.00;;;;;;5437859;26;20269;-52
2024/04/19 07:11:52;;;;;;;17.07;15.87;;;9.40;1.00;;;;;;5435687;26;20270;-53
2024/04/19 07:14:18;;;;;;;16.93;15.57;;;9.40;1.00;;;;;;5436744;26;20234;-46
2024/04/19 07:16:44;;;;;;;15.10;14.00;;;9.40;1.00;;;;;;5437053;26;20234;-48
2024/04/19 07:19:09;;;;;;;16.47;15.23;;;9.40;1.00;;;;;;5437501;26;21514;-49
2024/04/19 07:21:35;;;;;;;16.33;15.03;;;9.50;1.00;;;;;;5418176;26;20264;-46
2024/04/19 07:24:01;;;;;;;16.67;15.37;;;9.50;1.00;;;;;;5437402;26;20341;-51
2024/04/19 07:26:26;;;;;;;16.90;15.53;;;9.50;1.00;;;;;;5437263;26;20704;-49
2024/04/19 07:28:52;;;;;;;15.20;14.10;;;9.40;1.00;;;;;;5437793;26;20234;-47
2024/04/19 07:31:17;;;;;;;15.23;14.07;;;9.50;1.00;;;;;;5437739;26;20733;-52
2024/04/19 07:33:43;;;;;;;16.33;15.23;;;9.60;1.00;;;;;;5440488;26;20285;-50
2024/04/19 07:36:10;;;;;;;15.13;14.13;;;9.50;1.00;;;;;;5437539;26;20342;-54
2024/04/19 07:38:36;;;;;;;16.10;14.90;;;9.70;1.00;;;;;;5438333;26;20264;-51
2024/04/19 07:41:05;;;;;;;15.00;13.90;;;9.80;99.90;;;;;;5438590;26;20542;-52
2024/04/19 07:43:31;;;;;;;15.17;14.17;;;9.90;99.90;;;;;;5437612;26;20511;-51
2024/04/19 07:45:56;;;;;;;14.33;13.43;;;10.10;99.90;;;;;;5437342;26;20465;-48
2024/04/19 07:48:22;;;;;;;14.40;13.43;;;10.20;99.90;;;;;;5434137;26;20241;-52
2024/04/19 07:50:47;;;;;;;14.20;13.30;;;10.40;99.90;;;;;;5437427;26;20264;-52
2024/04/19 07:53:18;;;;;;;15.23;14.20;;;10.60;99.90;;;;;;5436102;26;20226;-53
2024/04/19 07:55:43;;;;;;;14.30;13.40;;;10.60;99.90;;;;;;5435495;26;20225;-54
2024/04/19 07:58:10;;;;;;;15.53;14.33;;;10.70;99.90;;;;;;5436168;26;20515;-52
2024/04/19 08:00:36;;;;;;;13.37;12.67;;;10.50;99.90;;;;;;5435665;26;20591;-52
2024/04/19 08:03:03;;;;;;;12.13;11.43;;;10.60;99.90;;;;;;5435677;26;21776;-53
2024/04/19 08:05:28;;;;;;;11.40;10.80;;;10.50;99.90;;;;;;5434864;26;20451;-49
2024/04/19 08:07:56;;;;;;;11.80;11.20;;;10.00;99.90;;;;;;5435988;26;20501;-53
2024/04/19 08:10:23;;;;;;;12.13;11.43;;;9.80;99.90;;;;;;5435183;26;20302;-51
2024/04/19 08:12:49;;;;;;;10.57;10.10;;;9.80;99.90;;;;;;5436318;26;20456;-51
2024/04/19 08:15:15;;;;;;;11.10;10.60;;;9.70;99.90;;;;;;5436140;26;20456;-48
2024/04/19 08:17:41;;;;;;;12.20;11.50;;;9.70;99.90;;;;;;5434744;26;20487;-52
2024/04/19 08:20:07;;;;;;;11.17;10.57;;;9.80;99.90;;;;;;5436291;26;20226;-49
2024/04/19 08:22:33;;;;;;;12.13;11.53;;;9.50;99.90;;;;;;5436160;26;20285;-50
2024/04/19 08:24:59;;;;;;;11.30;10.70;;;9.50;99.90;;;;;;5434123;26;20817;-52
2024/04/19 08:27:25;;;;;;;13.30;12.60;;;9.50;99.90;;;;;;5436050;26;20218;-54
2024/04/19 08:29:51;;;;;;;13.00;12.20;;;9.40;99.90;;;;;;5434679;26;20467;-49
2024/04/19 08:32:17;;;;;;;11.60;10.90;;;9.10;99.90;;;;;;5436415;26;20504;-54
2024/04/19 08:34:46;;;;;;;13.83;13.03;;;9.20;99.90;;;;;;5435980;26;20218;-51
2024/04/19 08:37:11;;;;;;;12.40;11.70;;;9.30;99.90;;;;;;5436059;26;20631;-47
2024/04/19 08:39:37;;;;;;;14.30;13.47;;;9.20;99.90;;;;;;5435225;26;20451;-50
2024/04/19 08:42:08;;;;;;;12.97;12.17;;;9.20;99.90;;;;;;5434720;26;20242;-50
2024/04/19 08:44:34;;;;;;;14.07;13.27;;;9.30;99.90;;;;;;5419408;26;20237;-46
2024/04/19 08:47:01;;;;;;;14.07;13.27;;;9.20;99.90;;;;;;5432437;26;20527;-53
2024/04/19 08:49:28;;;;;;;14.43;13.53;;;9.10;99.90;;;;;;5435447;26;20276;-47
2024/04/19 08:51:55;;;;;;;13.40;12.50;;;9.20;99.90;;;;;;5433869;26;20467;-52
2024/04/19 08:54:21;;;;;;;13.83;12.93;;;9.30;99.90;;;;;;5434181;26;20913;-45
2024/04/19 08:56:49;;;;;;;13.80;13.10;;;9.20;99.90;;;;;;5433641;26;20455;-42
2024/04/19 08:59:18;;;;;;;15.57;14.67;;;9.00;99.90;;;;;;5432872;26;20808;-46
2024/04/19 09:01:43;;;;;;;13.37;12.57;;;8.90;99.90;;;;;;5434296;26;20467;-45
2024/04/19 09:04:09;;;;;;;14.00;13.13;;;9.00;99.90;;;;;;5434072;26;20459;-48
2024/04/19 09:06:35;;;;;;;13.23;12.43;;;9.10;99.90;;;;;;5434119;26;20285;-47
2024/04/19 09:09:01;;;;;;;13.23;12.43;;;9.20;99.90;;;;;;5433955;26;20281;-48
2024/04/19 09:11:28;;;;;;;12.50;11.67;;;9.40;99.90;;;;;;5432664;26;20463;-45
2024/04/19 09:13:55;;;;;;;12.93;12.23;;;9.40;99.90;;;;;;5433797;26;20491;-43
2024/04/19 09:16:20;;;;;;;14.20;13.30;;;9.30;99.90;;;;;;5431625;26;20800;-51
2024/04/19 09:18:49;;;;;;;12.80;11.73;;;9.30;99.90;;;;;;5433622;26;20506;-52
2024/04/19 09:21:15;;;;;;;12.90;12.10;;;9.40;99.90;;;;;;5433911;26;20229;-48
2024/04/19 09:23:41;;;;;;;12.40;11.80;;;9.40;99.90;;;;;;5437209;26;21005;-39
2024/04/19 09:26:07;;;;;;;12.90;12.20;;;9.50;99.90;;;;;;5436946;26;20881;-40
2024/04/19 09:28:33;;;;;;;13.43;12.63;;;9.30;99.90;;;;;;5437432;26;20398;-50
2024/04/19 09:30:59;;;;;;;13.07;12.37;;;9.40;99.90;;;;;;5436077;26;20451;-49
2024/04/19 09:33:25;;;;;;;13.10;12.30;;;9.60;99.90;;;;;;5436752;26;20288;-48
2024/04/19 09:35:51;;;;;;;11.97;11.30;;;9.70;99.90;;;;;;5435605;26;20476;-50
2024/04/19 09:38:19;;;;;;;12.73;12.03;;;9.50;99.90;;;;;;5436740;26;20607;-50
2024/04/19 09:40:46;;;;;;;12.30;11.63;;;9.60;99.90;;;;;;5435644;26;20560;-47
2024/04/19 09:43:15;;;;;;;11.50;10.80;;;9.50;99.90;;;;;;5433731;26;20451;-48
2024/04/19 09:45:43;;;;;;;12.20;11.60;;;9.30;99.90;;;;;;5434593;26;20452;-51
2024/04/19 09:48:15;;;;;;;12.47;11.80;;;9.30;99.90;;;;;;5406449;26;20470;-50
2024/04/19 09:50:45;;;;;;;11.90;11.30;;;9.30;99.90;;;;;;5434416;26;20459;-50
2024/04/19 09:53:29;;;;;;;12.00;11.40;;;9.30;99.90;;;;;;5435300;26;20536;-53
2024/04/19 09:56:06;;;;;;;11.70;11.00;;;9.20;99.90;;;;;;5437346;26;20445;-51
2024/04/19 09:58:33;;;;;;;11.57;10.97;;;9.30;99.90;;;;;;5436528;26;20527;-49
2024/04/19 10:01:00;;;;;;;11.87;11.23;;;9.30;99.90;;;;;;5436872;26;20463;-49
2024/04/19 10:03:28;;;;;;;11.70;11.10;;;9.40;99.90;;;;;;5436590;26;21026;-43
2024/04/19 10:05:54;;;;;;;12.13;11.33;;;9.50;99.90;;;;;;5436742;26;20455;-39
2024/04/19 10:08:24;;;;;;;11.20;10.60;;;9.50;99.90;;;;;;5435627;26;20535;-41
2024/04/19 10:10:54;;;;;;;10.60;10.10;;;9.50;99.90;;;;;;5437534;26;20479;-44
2024/04/19 10:13:20;;;;;;;11.73;11.13;;;9.50;99.90;;;;;;5437788;26;20494;-43
2024/04/19 10:15:48;;;;;;;11.60;11.00;;;9.40;99.90;;;;;;5436692;26;20464;-41
2024/04/19 10:18:14;;;;;;;11.30;10.80;;;9.30;99.90;;;;;;5437406;26;20459;-44
2024/04/19 10:20:41;;;;;;;10.87;10.33;;;9.30;99.90;;;;;;5437185;26;22080;-39
2024/04/19 10:23:09;;;;;;;10.97;10.47;;;9.30;99.90;;;;;;5435845;26;20305;-42
2024/04/19 10:25:37;;;;;;;10.17;9.67;;;9.50;99.90;;;;;;5437003;26;20468;-40
2024/04/19 10:28:04;;;;;;;10.63;10.13;;;9.80;99.90;;;;;;5436011;26;21344;-39
2024/04/19 10:30:31;;;;;;;11.57;11.03;;;9.70;99.90;;;;;;5436415;26;20582;-38
2024/04/19 10:33:01;;;;;;;11.90;11.30;;;9.80;99.90;;;;;;5437147;26;20459;-42
2024/04/19 10:35:27;;;;;;;12.10;11.50;;;9.90;99.90;;;;;;5437600;26;21178;-39
2024/04/19 10:37:53;;;;;;;11.17;10.63;;;9.80;99.90;;;;;;5437045;26;20483;-42
2024/04/19 10:40:20;;;;;;;12.10;11.40;;;9.90;99.90;;;;;;5437452;26;21138;-41
2024/04/19 10:42:45;;;;;;;12.13;11.43;;;10.00;99.90;;;;;;5437811;26;20230;-44
2024/04/19 10:45:14;;;;;;;11.37;10.87;;;9.90;99.90;;;;;;5434736;26;20455;-45
2024/04/19 10:47:43;;;;;;;11.70;11.10;;;9.70;99.90;;;;;;5405467;26;20260;-38
2024/04/19 10:50:09;;;;;;;11.60;11.00;;;9.70;99.90;;;;;;5436544;26;21029;-42
2024/04/19 10:52:35;;;;;;;11.03;10.53;;;9.60;99.90;;;;;;5434721;26;20463;-39
2024/04/19 10:55:01;;;;;;;10.87;10.27;;;9.60;99.90;;;;;;5436605;26;20786;-43
2024/04/19 10:57:33;;;;;;;10.73;10.20;;;9.70;99.90;;;;;;5432235;26;20621;-43
2024/04/19 10:59:58;;;;;;;11.53;11.03;;;9.60;99.90;;;;;;5435640;26;20237;-44
2024/04/19 11:02:26;;;;;;;10.10;9.60;;;9.60;99.90;;;;;;5435651;26;20969;-41
2024/04/19 11:04:53;;;;;;;10.67;10.17;;;9.60;99.90;;;;;;5436167;26;20242;-39
2024/04/19 11:07:20;;;;;;;10.47;9.97;;;9.60;99.90;;;;;;5403985;26;20483;-42
2024/04/19 11:09:46;;;;;;;10.50;10.00;;;9.60;99.90;;;;;;5435763;26;20555;-43
2024/04/19 11:12:12;;;;;;;11.60;11.00;;;9.50;99.90;;;;;;5435334;26;20475;-39
2024/04/19 11:14:38;;;;;;;10.87;10.37;;;9.40;99.90;;;;;;5434870;26;20574;-37
2024/04/19 11:17:04;;;;;;;11.60;11.10;;;9.20;99.90;;;;;;5434435;26;20443;-43
2024/04/19 11:19:33;;;;;;;10.90;10.40;;;9.10;1.00;;;;;;5435215;26;20230;-44
2024/04/19 11:21:59;;;;;;;10.67;10.07;;;9.10;1.00;;;;;;5435003;26;20234;-41
2024/04/19 11:24:27;;;;;;;10.50;10.10;;;9.00;1.00;;;;;;5433379;26;21112;-39
2024/04/19 11:26:53;;;;;;;11.40;10.90;;;9.10;1.00;;;;;;5435144;26;20234;-38
2024/04/19 11:29:20;;;;;;;11.43;10.93;;;9.00;1.00;;;;;;5435982;26;20891;-39
2024/04/19 11:31:46;;;;;;;11.77;11.27;;;9.00;1.00;;;;;;5435784;26;21036;-41
2024/04/19 11:34:12;;;;;;;11.60;11.10;;;9.00;1.00;;;;;;5435903;26;20563;-39
2024/04/19 11:36:42;;;;;;;11.03;10.53;;;9.00;1.00;;;;;;5435681;26;20456;-43
2024/04/19 11:39:08;;;;;;;11.27;10.77;;;8.80;1.00;;;;;;5435681;26;20226;-39
2024/04/19 11:41:34;;;;;;;11.57;10.87;;;8.80;99.90;;;;;;5435224;26;20937;-40
2024/04/19 11:44:02;;;;;;;10.70;10.00;;;8.70;99.90;;;;;;5434196;26;20354;-42
2024/04/19 11:46:28;;;;;;;10.77;10.27;;;8.70;99.90;;;;;;5434655;26;20456;-38
2024/04/19 11:48:58;;;;;;;10.63;10.13;;;8.60;1.00;;;;;;5435721;26;20911;-39
2024/04/19 11:51:25;;;;;;;11.03;10.53;;;8.40;99.90;;;;;;5434267;26;20472;-37
2024/04/19 11:53:51;;;;;;;12.20;11.60;;;8.30;99.90;;;;;;5435312;26;20455;-41
2024/04/19 11:56:17;;;;;;;12.20;11.70;;;8.10;99.90;;;;;;5435568;26;20922;-38
2024/04/19 11:58:43;;;;;;;12.97;12.37;;;8.10;99.90;;;;;;5434081;26;20257;-42
2024/04/19 12:01:09;;;;;;;13.17;12.57;;;7.90;99.90;;;;;;5434940;26;20514;-41
2024/04/19 12:03:34;;;;;;;14.10;13.50;;;7.80;63.10;;;;;;5432703;26;21067;-42
2024/04/19 12:06:01;;;;;;;14.10;13.43;;;7.80;1.00;;;;;;5435312;26;20229;-39
2024/04/19 12:08:27;;;;;;;14.50;13.80;;;7.80;99.90;;;;;;5435414;26;20230;-44
2024/04/19 12:10:52;;;;;;;14.87;13.87;;;7.80;1.00;;;;;;5434599;26;20547;-40
2024/04/19 12:13:18;;;;;;;13.53;12.93;;;7.80;1.00;;;;;;5435399;26;20314;-43
2024/04/19 12:15:43;;;;;;;14.67;14.07;;;7.70;99.90;;;;;;5434951;26;20754;-44
2024/04/19 12:18:09;;;;;;;13.90;13.30;;;7.70;1.00;;;;;;5434680;26;20226;-42
2024/04/19 12:20:34;;;;;;;14.13;13.43;;;7.60;1.00;;;;;;5432563;26;20242;-45
2024/04/19 12:23:00;;;;;;;13.50;12.90;;;7.50;1.00;;;;;;5430194;26;20652;-43
2024/04/19 12:25:26;;;;;;;13.17;12.57;;;7.30;1.00;;;;;;5435062;26;20226;-44
2024/04/19 12:27:52;;;;;;;12.60;12.10;;;7.20;1.00;;;;;;5434555;26;20531;-45
2024/04/19 12:30:17;;;;;;;13.20;12.70;;;7.20;1.00;;;;;;5434473;26;20230;-43
2024/04/19 12:32:43;;;;;;;12.97;12.47;;;7.20;1.00;;;;;;5432428;26;20307;-43
2024/04/19 12:35:15;;;;;;;13.27;12.60;;;7.20;1.00;;;;;;5434532;26;20287;-41
2024/04/19 12:37:40;;;;;;;13.07;12.47;;;7.20;1.00;;;;;;5435056;26;20226;-42
2024/04/19 12:40:06;;;;;;;12.17;11.67;;;7.00;1.00;;;;;;5403627;26;20594;-42
2024/04/19 12:42:32;;;;;;;13.50;12.80;;;6.90;1.00;;;;;;5434444;26;20669;-47
2024/04/19 12:44:57;;;;;;;13.13;12.63;;;6.80;1.00;;;;;;5431611;26;20531;-47